South Burlington, Vermont
Current Conditions -  °F | °C
As of 12:54 PM on Sunday 21 Dec 2014 (Local Time) from KBTV Reporting Station
Overcast Overcast  
Wind Chill: 25°   Ceiling: 3200
Heat Index: 25°   Visibility: 10mi
Dew Point: 19°   Wind: 3mph
Humidity: 78%   Direction: 50°NE
Pressure: 30.34"   Gusts: NA
Location:  44.45°N, 73.18°W
Report Text: KBTV 211754Z 05003KT 10SM OVC032 M04/M07 A3034 RMK AO2 SLP279 4/007 T10391072 11039 21078 58010
Loading
Personal Weather Stations






























Interactive Weather Map New forecast layout! Learn more

10-Day Weather Forecast

Advertisements
Track Severe Weather on mobile